createdAt,value
2023-05-22T00:01:56.611Z,2.78
2023-05-22T00:04:23.866Z,3.00
2023-05-22T00:06:50.782Z,2.60
2023-05-22T00:09:17.771Z,2.63
2023-05-22T00:11:44.804Z,3.05
2023-05-22T00:14:13.404Z,3.65
2023-05-22T00:16:41.041Z,2.80
2023-05-22T00:19:13.191Z,2.50
2023-05-22T00:21:40.358Z,1.77
2023-05-22T00:24:07.504Z,2.47
2023-05-22T00:26:34.544Z,2.20
2023-05-22T00:31:29.014Z,2.03
2023-05-22T00:33:56.008Z,1.83
2023-05-22T00:36:23.709Z,2.15
2023-05-22T00:38:50.828Z,2.80
2023-05-22T00:41:17.760Z,1.85
2023-05-22T00:43:47.547Z,2.60
2023-05-22T00:46:14.501Z,3.25
2023-05-22T00:48:41.491Z,2.53
2023-05-22T00:51:08.907Z,3.50
2023-05-22T00:53:37.074Z,2.47
2023-05-22T00:56:04.960Z,2.17
2023-05-22T00:58:31.849Z,1.80
2023-05-22T01:00:59.448Z,2.20
2023-05-22T01:03:27.453Z,2.50
2023-05-22T01:05:55.614Z,2.25
2023-05-22T01:08:22.873Z,2.53
2023-05-22T01:11:00.808Z,3.25
2023-05-22T01:14:10.825Z,3.72
2023-05-22T01:17:08.876Z,3.17
2023-05-22T01:20:01.075Z,2.88
2023-05-22T01:23:03.903Z,2.55
2023-05-22T01:25:52.917Z,2.95
2023-05-22T01:28:43.064Z,2.75
2023-05-22T01:31:13.241Z,2.50
2023-05-22T01:33:49.898Z,3.25
2023-05-22T01:36:20.289Z,2.70
2023-05-22T01:38:47.961Z,2.55
2023-05-22T01:41:16.143Z,3.17
2023-05-22T01:43:44.348Z,3.25
2023-05-22T01:46:11.217Z,3.47
2023-05-22T01:48:38.086Z,3.15
2023-05-22T01:51:19.317Z,2.95
2023-05-22T01:53:50.524Z,3.17
2023-05-22T01:56:30.602Z,2.97
2023-05-22T01:59:13.639Z,3.25
2023-05-22T02:01:42.847Z,2.90
2023-05-22T02:04:30.634Z,2.72
2023-05-22T02:07:18.231Z,3.22
2023-05-22T02:09:47.493Z,3.67
2023-05-22T02:12:15.088Z,3.22
2023-05-22T02:14:43.506Z,3.25
2023-05-22T02:17:10.380Z,2.75
2023-05-22T02:19:37.600Z,3.05
2023-05-22T02:22:05.757Z,3.63
2023-05-22T02:24:37.004Z,3.00
2023-05-22T02:29:31.085Z,2.25
2023-05-22T02:31:58.030Z,2.30
2023-05-22T02:34:26.957Z,3.15
2023-05-22T02:36:53.953Z,2.05
2023-05-22T02:39:20.861Z,3.08
2023-05-22T02:41:47.709Z,3.95
2023-05-22T02:44:14.621Z,2.60
2023-05-22T02:46:43.015Z,3.38
2023-05-22T02:49:09.942Z,2.75
2023-05-22T02:51:37.196Z,2.50
2023-05-22T02:54:04.128Z,2.90
2023-05-22T02:56:31.135Z,3.15
2023-05-22T02:58:58.049Z,3.28
2023-05-22T03:01:26.431Z,3.15
2023-05-22T03:03:54.995Z,3.03
2023-05-22T03:06:23.154Z,3.22
2023-05-22T03:08:50.757Z,3.05
2023-05-22T03:11:17.630Z,4.20
2023-05-22T03:18:43.519Z,2.65
2023-05-22T03:21:10.496Z,2.67
2023-05-22T03:23:37.367Z,1.88
2023-05-22T03:26:04.329Z,3.00
2023-05-22T03:28:34.612Z,2.60
2023-05-22T03:31:01.586Z,2.85
2023-05-22T03:33:35.047Z,4.15
2023-05-22T03:36:03.499Z,3.72
2023-05-22T03:38:30.434Z,3.53
2023-05-22T03:40:57.334Z,9.63
2023-05-22T03:45:51.482Z,2.70
2023-05-22T03:48:18.476Z,3.35
2023-05-22T03:50:45.419Z,4.20
2023-05-22T03:53:12.653Z,3.17
2023-05-22T03:55:39.679Z,2.95
2023-05-22T03:58:06.565Z,4.13
2023-05-22T04:00:33.490Z,2.63
2023-05-22T04:03:00.882Z,2.67
2023-05-22T04:05:28.148Z,3.35
2023-05-22T04:07:55.118Z,3.50
2023-05-22T04:10:23.474Z,3.03
2023-05-22T04:12:50.895Z,4.28
2023-05-22T04:15:17.769Z,2.92
2023-05-22T04:17:44.777Z,3.45
2023-05-22T04:20:12.117Z,3.65
2023-05-22T04:25:07.167Z,3.85
2023-05-22T04:30:03.629Z,1.75
2023-05-22T04:32:31.610Z,3.50
2023-05-22T04:35:00.355Z,3.47
2023-05-22T04:37:28.694Z,2.35
2023-05-22T04:39:58.213Z,2.97
2023-05-22T04:42:25.330Z,3.40
2023-05-22T04:44:57.939Z,2.47
2023-05-22T04:47:24.776Z,3.88
2023-05-22T04:49:51.816Z,3.08
2023-05-22T04:52:18.684Z,4.55
2023-05-22T04:55:06.654Z,4.32
2023-05-22T04:57:52.753Z,4.22
2023-05-22T05:00:38.344Z,10.30
2023-05-22T05:03:07.916Z,5.38
2023-05-22T05:05:35.070Z,3.92
2023-05-22T05:08:02.384Z,3.97
2023-05-22T05:10:29.336Z,3.90
2023-05-22T05:12:56.776Z,3.45
2023-05-22T05:15:23.923Z,3.83
2023-05-22T05:17:51.446Z,4.18
2023-05-22T05:20:18.634Z,5.07
2023-05-22T05:22:46.153Z,3.65
2023-05-22T05:25:13.961Z,3.88
2023-05-22T05:27:40.907Z,3.90
2023-05-22T05:30:09.557Z,3.83
2023-05-22T05:32:50.968Z,5.03
2023-05-22T05:35:50.186Z,7.13
2023-05-22T05:38:19.274Z,5.32
2023-05-22T05:40:46.864Z,5.13
2023-05-22T05:43:15.328Z,6.10
2023-05-22T05:45:43.718Z,5.80
2023-05-22T05:48:11.932Z,5.47
2023-05-22T05:50:42.763Z,5.80
2023-05-22T05:55:36.568Z,4.80
2023-05-22T05:58:04.342Z,5.40
2023-05-22T06:00:54.827Z,5.82
2023-05-22T06:03:21.839Z,5.70
2023-05-22T06:05:59.833Z,5.90
2023-05-22T06:08:46.797Z,6.60
2023-05-22T06:11:13.820Z,10.95
2023-05-22T06:13:50.716Z,6.65
2023-05-22T06:16:17.650Z,8.68
2023-05-22T06:18:46.219Z,8.60
2023-05-22T06:21:13.118Z,8.48
2023-05-22T06:23:39.975Z,7.57
2023-05-22T06:26:08.168Z,6.30
2023-05-22T06:28:37.951Z,7.15
2023-05-22T06:31:04.981Z,6.05
2023-05-22T06:33:34.384Z,6.32
2023-05-22T06:36:01.515Z,6.72
2023-05-22T06:38:28.719Z,7.25
2023-05-22T06:40:55.669Z,8.70
2023-05-22T06:43:25.570Z,6.93
2023-05-22T06:46:00.828Z,7.20
2023-05-22T06:48:46.250Z,7.45
2023-05-22T06:51:21.932Z,7.15
2023-05-22T06:53:52.055Z,7.13
2023-05-22T06:56:25.363Z,7.03
2023-05-22T06:58:54.769Z,9.23
2023-05-22T07:01:26.790Z,5.85
2023-05-22T07:04:08.925Z,8.93
2023-05-22T07:06:41.766Z,6.20
2023-05-22T07:09:11.051Z,7.63
2023-05-22T07:11:38.331Z,7.25
2023-05-22T07:14:05.161Z,7.70
2023-05-22T07:16:32.135Z,7.05
2023-05-22T07:18:59.525Z,5.90
2023-05-22T07:21:26.879Z,7.82
2023-05-22T07:23:55.009Z,7.65
2023-05-22T07:26:22.802Z,13.50
2023-05-22T07:28:59.226Z,5.93
2023-05-22T07:31:26.163Z,6.45
2023-05-22T07:33:56.005Z,6.75
2023-05-22T07:36:22.989Z,7.13
2023-05-22T07:38:49.872Z,6.07
2023-05-22T07:41:17.436Z,6.25
2023-05-22T07:43:44.805Z,7.30
2023-05-22T07:46:16.060Z,6.15
2023-05-22T07:48:53.693Z,7.35
2023-05-22T07:51:20.603Z,6.03
2023-05-22T07:53:50.339Z,7.65
2023-05-22T07:56:17.590Z,7.78
2023-05-22T07:58:48.253Z,7.53
2023-05-22T08:01:18.284Z,8.23
2023-05-22T08:03:45.353Z,7.20
2023-05-22T08:06:12.713Z,6.55
2023-05-22T08:08:39.686Z,6.80
2023-05-22T08:11:06.929Z,6.22
2023-05-22T08:13:34.000Z,6.05
2023-05-22T08:16:01.553Z,10.18
2023-05-22T08:18:29.619Z,6.40
2023-05-22T08:20:56.979Z,6.60
2023-05-22T08:23:23.839Z,6.22
2023-05-22T08:25:50.771Z,6.15
2023-05-22T08:28:17.675Z,6.25
2023-05-22T08:30:44.646Z,6.93
2023-05-22T08:33:12.011Z,8.00
2023-05-22T08:35:39.379Z,6.32
2023-05-22T08:38:06.274Z,5.97
2023-05-22T08:40:37.948Z,7.53
2023-05-22T08:43:06.235Z,5.85
2023-05-22T08:45:34.163Z,7.57
2023-05-22T08:48:05.877Z,6.72
2023-05-22T08:50:36.849Z,6.18
2023-05-22T08:53:06.651Z,6.28
2023-05-22T08:55:34.042Z,6.28
2023-05-22T08:58:01.626Z,5.97
2023-05-22T09:00:29.618Z,8.50
2023-05-22T09:02:57.455Z,5.05
2023-05-22T09:05:26.716Z,4.85
2023-05-22T09:07:56.616Z,4.45
2023-05-22T09:10:25.752Z,5.60
2023-05-22T09:15:32.552Z,5.82
2023-05-22T09:18:00.662Z,5.05
2023-05-22T09:20:27.616Z,9.27
2023-05-22T09:25:22.165Z,4.30
2023-05-22T09:27:49.266Z,4.57
2023-05-22T09:30:17.707Z,4.18
2023-05-22T09:32:50.989Z,4.78
2023-05-22T09:35:19.686Z,4.93
2023-05-22T09:37:46.825Z,4.35
2023-05-22T09:40:16.402Z,4.25
2023-05-22T09:42:46.148Z,7.07
2023-05-22T09:45:13.414Z,4.72
2023-05-22T09:47:40.763Z,4.45
2023-05-22T09:50:10.296Z,4.28
2023-05-22T09:52:37.925Z,3.95
2023-05-22T09:55:07.047Z,3.83
2023-05-22T09:57:45.069Z,4.78
2023-05-22T10:00:15.451Z,4.68
2023-05-22T10:02:46.458Z,4.65
2023-05-22T10:05:23.453Z,4.97
2023-05-22T10:07:56.763Z,4.53
2023-05-22T10:10:25.258Z,4.53
2023-05-22T10:12:57.198Z,4.10
2023-05-22T10:15:24.723Z,4.18
2023-05-22T10:17:51.829Z,4.25
2023-05-22T10:20:19.944Z,5.50
2023-05-22T10:22:48.911Z,4.50
2023-05-22T10:25:21.800Z,4.82
2023-05-22T10:27:51.995Z,5.78
2023-05-22T10:30:36.907Z,6.47
2023-05-22T10:33:38.764Z,4.33
2023-05-22T10:36:10.377Z,4.50
2023-05-22T10:38:58.685Z,4.50
2023-05-22T10:41:26.258Z,4.93
2023-05-22T10:43:56.727Z,4.97
2023-05-22T10:46:23.983Z,4.53
2023-05-22T10:48:54.103Z,4.50
2023-05-22T10:51:24.919Z,4.70
2023-05-22T10:54:02.372Z,3.58
2023-05-22T10:56:36.085Z,4.72
2023-05-22T10:59:05.851Z,5.32
2023-05-22T11:01:36.146Z,4.13
2023-05-22T11:04:11.865Z,4.72
2023-05-22T11:07:02.160Z,5.30
2023-05-22T11:09:33.559Z,5.35
2023-05-22T11:12:12.203Z,5.13
2023-05-22T11:14:39.376Z,6.07
2023-05-22T11:17:06.670Z,5.18
2023-05-22T11:19:33.914Z,6.40
2023-05-22T11:22:03.267Z,7.45
2023-05-22T11:24:36.838Z,6.32
2023-05-22T11:27:07.863Z,6.45
2023-05-22T11:29:35.623Z,7.05
2023-05-22T11:32:02.890Z,6.78
2023-05-22T11:34:29.768Z,7.18
2023-05-22T11:37:00.106Z,7.72
2023-05-22T11:39:27.427Z,6.88
2023-05-22T11:41:54.708Z,6.47
2023-05-22T11:44:21.728Z,6.32
2023-05-22T11:46:48.713Z,5.40
2023-05-22T11:49:17.120Z,5.97
2023-05-22T11:51:44.491Z,4.88
2023-05-22T11:54:11.773Z,5.43
2023-05-22T11:56:38.656Z,5.63
2023-05-22T11:59:05.538Z,8.20
2023-05-22T12:01:32.573Z,6.78
2023-05-22T12:03:59.633Z,7.47
2023-05-22T12:06:26.801Z,6.50
2023-05-22T12:08:54.239Z,6.00
2023-05-22T12:11:21.580Z,5.53
2023-05-22T12:13:52.017Z,5.97
2023-05-22T12:16:21.858Z,6.43
2023-05-22T12:18:55.566Z,6.88
2023-05-22T12:21:22.730Z,6.32
2023-05-22T12:23:51.181Z,5.60
2023-05-22T12:26:18.290Z,6.47
2023-05-22T12:28:45.208Z,7.00
2023-05-22T12:31:20.878Z,5.85
2023-05-22T12:33:47.905Z,6.87
2023-05-22T12:36:14.991Z,6.10
2023-05-22T12:38:41.833Z,8.68
2023-05-22T12:41:08.689Z,7.38
2023-05-22T12:43:35.818Z,5.70
2023-05-22T12:46:03.122Z,6.57
2023-05-22T12:48:30.071Z,5.35
2023-05-22T12:50:56.986Z,6.18
2023-05-22T12:53:23.927Z,6.35
2023-05-22T12:55:50.845Z,6.93
2023-05-22T12:58:17.700Z,7.53
2023-05-22T13:00:44.594Z,6.50
2023-05-22T13:03:12.355Z,7.88
2023-05-22T13:05:39.571Z,6.68
2023-05-22T13:08:06.594Z,7.68
2023-05-22T13:10:33.493Z,6.18
2023-05-22T13:13:00.388Z,7.15
2023-05-22T13:15:31.256Z,6.32
2023-05-22T13:17:58.155Z,5.47
2023-05-22T13:20:25.250Z,6.85
2023-05-22T13:22:52.114Z,6.53
2023-05-22T13:25:19.168Z,6.82
2023-05-22T13:27:46.374Z,5.78
2023-05-22T13:30:13.565Z,6.57
2023-05-22T13:32:40.669Z,6.88
2023-05-22T13:35:07.882Z,6.15
2023-05-22T13:37:34.959Z,7.35
2023-05-22T13:40:01.968Z,6.60
2023-05-22T13:42:28.962Z,6.78
2023-05-22T13:44:55.920Z,7.00
2023-05-22T13:47:23.288Z,6.78
2023-05-22T13:49:50.398Z,5.53
2023-05-22T13:52:17.267Z,5.50
2023-05-22T13:54:44.167Z,6.63
2023-05-22T13:57:11.083Z,5.95
2023-05-22T13:59:37.934Z,5.85
2023-05-22T14:02:05.064Z,5.88
2023-05-22T14:04:33.284Z,5.63
2023-05-22T14:07:00.318Z,6.13
2023-05-22T14:09:27.615Z,7.53
2023-05-22T14:11:54.688Z,5.28
2023-05-22T14:14:23.816Z,5.22
2023-05-22T14:16:51.986Z,5.22
2023-05-22T14:19:20.574Z,5.32
2023-05-22T14:21:50.061Z,5.13
2023-05-22T14:24:17.565Z,5.35
2023-05-22T14:26:44.870Z,4.47
2023-05-22T14:29:11.902Z,4.78
2023-05-22T14:31:51.704Z,5.55
2023-05-22T14:34:19.116Z,5.47
2023-05-22T14:36:46.698Z,5.88
2023-05-22T14:39:13.578Z,5.35
2023-05-22T14:41:40.422Z,4.75
2023-05-22T14:44:07.256Z,5.40
2023-05-22T14:46:34.169Z,5.57
2023-05-22T14:49:01.103Z,5.22
2023-05-22T14:51:28.002Z,4.63
2023-05-22T14:53:55.091Z,4.60
2023-05-22T14:56:22.918Z,4.43
2023-05-22T14:58:50.056Z,5.25
2023-05-22T15:01:16.952Z,5.22
2023-05-22T15:03:43.798Z,4.45
2023-05-22T15:06:10.647Z,5.18
2023-05-22T15:08:37.567Z,4.45
2023-05-22T15:11:04.459Z,5.07
2023-05-22T15:13:31.354Z,5.13
2023-05-22T15:15:58.444Z,4.25
2023-05-22T15:18:27.126Z,4.13
2023-05-22T15:20:54.229Z,6.03
2023-05-22T15:23:25.019Z,4.07
2023-05-22T15:25:53.864Z,8.07
2023-05-22T15:28:21.375Z,3.65
2023-05-22T15:30:48.464Z,4.50
2023-05-22T15:33:15.796Z,11.00
2023-05-22T15:35:46.405Z,3.67
2023-05-22T15:38:15.379Z,4.03
2023-05-22T15:40:43.277Z,3.67
2023-05-22T15:43:10.736Z,3.53
2023-05-22T15:45:37.912Z,3.05
2023-05-22T15:48:06.021Z,1.75
2023-05-22T15:50:33.990Z,1.27
2023-05-22T15:53:01.445Z,1.15
2023-05-22T15:55:28.608Z,1.30
2023-05-22T15:57:55.474Z,3.50
2023-05-22T16:02:49.467Z,0.98
2023-05-22T16:05:16.469Z,1.27
2023-05-22T16:10:10.830Z,1.52
2023-05-22T16:12:39.755Z,0.98
2023-05-22T16:15:07.504Z,1.30
2023-05-22T16:17:34.607Z,1.00
2023-05-22T16:20:01.667Z,1.52
2023-05-22T16:22:44.133Z,1.00
2023-05-22T16:25:17.870Z,1.17
2023-05-22T16:27:44.935Z,1.40
2023-05-22T16:32:39.416Z,1.10
2023-05-22T16:35:06.513Z,1.50
2023-05-22T16:40:00.589Z,1.65
2023-05-22T16:42:27.568Z,5.32
2023-05-22T16:44:54.432Z,2.40
2023-05-22T16:47:22.019Z,3.72
2023-05-22T16:49:50.081Z,5.07
2023-05-22T16:52:17.976Z,14.77
2023-05-22T16:54:44.865Z,5.15
2023-05-22T16:57:11.769Z,5.18
2023-05-22T16:59:38.766Z,5.40
2023-05-22T17:02:05.715Z,4.18
2023-05-22T17:04:32.754Z,3.75
2023-05-22T17:11:54.884Z,3.75
2023-05-22T17:14:22.246Z,4.00
2023-05-22T17:16:49.443Z,4.10
2023-05-22T17:19:18.036Z,4.88
2023-05-22T17:21:45.037Z,6.45
2023-05-22T17:24:14.686Z,5.35
2023-05-22T17:26:42.486Z,4.63
2023-05-22T17:29:10.865Z,10.23
2023-05-22T17:31:39.472Z,3.92
2023-05-22T17:34:07.040Z,10.60
2023-05-22T17:36:34.179Z,4.07
2023-05-22T17:39:01.124Z,4.07
2023-05-22T17:41:28.043Z,8.90
2023-05-22T17:43:56.988Z,3.70
2023-05-22T17:46:23.954Z,3.42
2023-05-22T17:48:51.091Z,4.05
2023-05-22T17:58:39.006Z,4.15
2023-05-22T18:01:05.984Z,3.78
2023-05-22T18:03:33.866Z,2.95
2023-05-22T18:06:00.908Z,4.28
2023-05-22T18:08:28.337Z,3.58
2023-05-22T18:10:56.089Z,2.88
2023-05-22T18:13:23.024Z,3.53
2023-05-22T18:15:51.551Z,4.18
2023-05-22T18:18:18.787Z,3.45
2023-05-22T18:23:13.273Z,5.70
2023-05-22T18:25:40.213Z,3.38
2023-05-22T18:28:08.143Z,3.30
2023-05-22T18:30:35.076Z,3.78
2023-05-22T18:33:02.069Z,2.75
2023-05-22T18:35:29.108Z,3.33
2023-05-22T18:37:57.001Z,3.42
2023-05-22T18:40:24.108Z,4.13
2023-05-22T18:42:52.070Z,4.22
2023-05-22T18:45:19.096Z,4.50
2023-05-22T18:47:46.179Z,3.03
2023-05-22T18:50:13.127Z,3.72
2023-05-22T18:52:40.208Z,3.58
2023-05-22T18:55:08.435Z,3.42
2023-05-22T18:57:35.483Z,4.30
2023-05-22T19:00:02.471Z,4.05
2023-05-22T19:07:23.420Z,3.65
2023-05-22T19:09:50.535Z,3.42
2023-05-22T19:12:17.598Z,5.00
2023-05-22T19:14:44.545Z,3.78
2023-05-22T19:17:12.491Z,3.15
2023-05-22T19:19:39.678Z,3.55
2023-05-22T19:29:28.041Z,3.08
2023-05-22T19:31:55.068Z,3.78
2023-05-22T19:34:22.019Z,3.92
2023-05-22T19:36:51.571Z,7.75
2023-05-22T19:39:18.522Z,4.13
2023-05-22T19:41:45.478Z,4.18
2023-05-22T19:44:12.540Z,3.60
2023-05-22T19:46:39.480Z,3.95
2023-05-22T19:49:06.430Z,3.80
2023-05-22T19:51:33.423Z,3.70
2023-05-22T19:54:00.368Z,3.78
2023-05-22T19:56:28.170Z,3.88
2023-05-22T19:58:55.072Z,4.32
2023-05-22T20:01:22.430Z,5.00
2023-05-22T20:03:49.478Z,4.60
2023-05-22T20:08:44.132Z,3.22
2023-05-22T20:11:11.053Z,4.63
2023-05-22T20:13:38.018Z,4.25
2023-05-22T20:16:11.463Z,4.38
2023-05-22T20:18:38.881Z,4.70
2023-05-22T20:23:32.832Z,3.90
2023-05-22T20:25:59.852Z,4.80
2023-05-22T20:28:26.883Z,4.75
2023-05-22T20:30:53.886Z,4.18
2023-05-22T20:33:20.928Z,4.93
2023-05-22T20:38:18.894Z,3.90
2023-05-22T20:40:47.447Z,5.30
2023-05-22T20:43:14.719Z,4.57
2023-05-22T20:48:13.393Z,4.55
2023-05-22T20:50:41.004Z,5.35
2023-05-22T20:53:08.452Z,5.35
2023-05-22T20:55:35.619Z,4.40
2023-05-22T20:58:02.524Z,5.10
2023-05-22T21:00:29.871Z,4.97
2023-05-22T21:02:58.370Z,4.55
2023-05-22T21:05:26.127Z,5.57
2023-05-22T21:07:53.042Z,5.55
2023-05-22T21:10:19.965Z,5.60
2023-05-22T21:12:46.878Z,5.25
2023-05-22T21:15:13.854Z,4.45
2023-05-22T21:17:40.942Z,5.47
2023-05-22T21:20:08.782Z,7.30
2023-05-22T21:22:35.623Z,5.13
2023-05-22T21:25:02.457Z,5.22
2023-05-22T21:27:29.331Z,4.22
2023-05-22T21:29:56.172Z,3.60
2023-05-22T21:32:23.039Z,4.45
2023-05-22T21:34:49.945Z,4.10
2023-05-22T21:37:16.811Z,3.65
2023-05-22T21:39:43.664Z,3.75
2023-05-22T21:42:10.583Z,4.18
2023-05-22T21:47:04.869Z,2.78
2023-05-22T21:49:32.961Z,3.13
2023-05-22T21:51:59.793Z,3.78
2023-05-22T21:54:26.635Z,4.38
2023-05-22T21:56:54.196Z,3.97
2023-05-22T21:59:21.081Z,3.83
2023-05-22T22:01:47.934Z,3.60
2023-05-22T22:04:14.851Z,3.10
2023-05-22T22:06:41.699Z,3.45
2023-05-22T22:09:09.132Z,3.42
2023-05-22T22:11:36.088Z,3.45
2023-05-22T22:14:03.575Z,2.30
2023-05-22T22:16:35.682Z,2.55
2023-05-22T22:19:03.295Z,2.53
2023-05-22T22:21:30.459Z,2.90
2023-05-22T22:23:57.381Z,4.15
2023-05-22T22:26:24.428Z,2.67
2023-05-22T22:28:51.326Z,2.90
2023-05-22T22:31:18.383Z,2.03
2023-05-22T22:33:45.319Z,3.40
2023-05-22T22:36:12.129Z,2.10
2023-05-22T22:38:38.975Z,2.38
2023-05-22T22:41:08.572Z,2.42
2023-05-22T22:43:36.062Z,2.25
2023-05-22T22:46:02.960Z,2.10
2023-05-22T22:48:29.839Z,2.25
2023-05-22T22:50:57.829Z,2.22
2023-05-22T22:53:24.678Z,1.85
2023-05-22T22:55:59.234Z,2.35
2023-05-22T22:58:26.149Z,2.25
2023-05-22T23:00:53.192Z,2.53
2023-05-22T23:03:20.296Z,2.78
2023-05-22T23:05:47.142Z,3.08
2023-05-22T23:08:13.994Z,3.13
2023-05-22T23:10:40.899Z,2.65
2023-05-22T23:13:07.795Z,2.60
2023-05-22T23:15:34.752Z,2.53
2023-05-22T23:18:01.610Z,3.05
2023-05-22T23:20:28.470Z,2.65
2023-05-22T23:22:55.285Z,3.17
2023-05-22T23:25:22.127Z,2.33
2023-05-22T23:27:48.992Z,2.65
2023-05-22T23:30:15.932Z,2.95
2023-05-22T23:32:42.796Z,3.22
2023-05-22T23:35:10.843Z,3.28
2023-05-22T23:37:37.966Z,2.53
2023-05-22T23:40:06.615Z,3.13
2023-05-22T23:42:35.265Z,2.88
2023-05-22T23:45:04.078Z,2.80
2023-05-22T23:47:31.630Z,2.33
2023-05-22T23:49:59.597Z,2.85
2023-05-22T23:52:26.965Z,2.47
2023-05-22T23:57:20.797Z,2.20
2023-05-22T23:59:47.648Z,3.15
